Time;durP1;ratioP1;P1;durP2;ratioP2;P2;SDS_P1;SDS_P2;PMS_P1;PMS_P2;Temp;Humidity;BMP_temperature;BMP_pressure;BME280_temperature;BME280_humidity;BME280_pressure;Samples;Min_cycle;Max_cycle;Signal;HPM_P1;HPM_P2
2023/03/05 00:00:36;;;;;;;;;23.00;19.67;;;;;7.87;57.00;101903.91;5056781;28;45349;-74
2023/03/05 00:03:01;;;;;;;;;17.67;17.67;;;;;7.79;57.32;101882.34;5045883;28;45476;-75
2023/03/05 00:05:27;;;;;;;;;25.33;20.33;;;;;8.02;57.61;101912.66;5046354;28;45871;-75
2023/03/05 00:07:52;;;;;;;;;19.00;19.00;;;;;8.06;57.58;101915.97;5058555;28;45444;-73
2023/03/05 00:10:17;;;;;;;;;24.00;22.00;;;;;8.02;58.08;101910.00;5057900;28;45375;-76
2023/03/05 00:12:43;;;;;;;;;14.67;14.33;;;;;7.82;58.23;101884.81;5049763;28;45529;-74
2023/03/05 00:15:08;;;;;;;;;19.00;17.00;;;;;7.08;59.39;101763.44;5057725;28;46342;-75
2023/03/05 00:17:34;;;;;;;;;25.00;20.67;;;;;7.85;59.47;101899.66;5059922;28;45372;-72
2023/03/05 00:19:59;;;;;;;;;17.00;15.67;;;;;7.61;59.50;101860.56;5066985;27;45483;-74
2023/03/05 00:22:25;;;;;;;;;18.33;16.67;;;;;7.89;60.07;101914.38;5056711;28;45375;-72
2023/03/05 00:24:51;;;;;;;;;20.33;17.33;;;;;7.80;60.28;101893.78;5049540;28;45392;-74
2023/03/05 00:27:16;;;;;;;;;14.33;14.33;;;;;7.44;60.27;101826.38;5049686;28;45354;-76
2023/03/05 00:29:42;;;;;;;;;23.00;23.00;;;;;7.73;60.37;101871.31;5049504;28;45356;-74
2023/03/05 00:32:07;;;;;;;;;16.67;14.33;;;;;7.81;60.57;101888.41;5057242;28;45226;-72
2023/03/05 00:34:32;;;;;;;;;17.33;15.33;;;;;7.90;60.17;101897.56;5057897;28;46476;-73
2023/03/05 00:36:58;;;;;;;;;26.33;23.67;;;;;7.97;60.33;101908.59;5051499;28;45284;-74
2023/03/05 00:39:23;;;;;;;;;23.00;22.33;;;;;7.89;60.73;101896.69;5061316;28;45553;-73
2023/03/05 00:41:49;;;;;;;;;30.00;27.00;;;;;7.49;61.11;101839.31;5051334;28;45439;-73
2023/03/05 00:44:15;;;;;;;;;24.00;22.67;;;;;7.75;61.64;101904.66;5052345;28;46000;-75
2023/03/05 00:46:40;;;;;;;;;25.33;21.67;;;;;7.69;62.08;101890.97;5054096;28;45526;-74
2023/03/05 00:49:06;;;;;;;;;27.00;25.33;;;;;7.69;61.69;101896.28;5041676;28;45324;-74
2023/03/05 00:51:32;;;;;;;;;23.00;22.00;;;;;7.48;61.50;101849.06;5058055;28;45327;-74
2023/03/05 00:53:57;;;;;;;;;30.33;26.00;;;;;7.73;61.69;101873.94;5049095;28;46587;-74
2023/03/05 00:56:23;;;;;;;;;28.00;25.67;;;;;7.58;61.79;101847.50;5056749;28;45319;-74
2023/03/05 00:58:48;;;;;;;;;25.33;23.00;;;;;7.76;62.55;101884.34;5056669;28;45519;-74
2023/03/05 01:01:14;;;;;;;;;19.67;19.67;;;;;7.81;62.41;101887.56;5055148;28;45451;-76
2023/03/05 01:03:39;;;;;;;;;25.00;23.33;;;;;7.06;62.50;101756.53;5055089;28;48294;-74
2023/03/05 01:06:09;;;;;;;;;20.00;18.67;;;;;7.81;62.72;101872.53;5053272;28;45416;-75
2023/03/05 01:08:35;;;;;;;;;12.33;10.00;;;;;7.84;62.81;101882.91;5046397;28;45410;-73
2023/03/05 01:11:03;;;;;;;;;21.67;19.33;;;;;7.74;62.98;101875.66;5055424;28;45481;-74
2023/03/05 01:13:28;;;;;;;;;20.67;19.67;;;;;7.66;63.04;101875.28;5055598;28;46950;-73
2023/03/05 01:15:53;;;;;;;;;20.00;18.33;;;;;7.10;63.47;101798.56;5048058;28;45625;-73
2023/03/05 01:18:19;;;;;;;;;21.67;19.33;;;;;7.33;63.67;101828.84;5050516;28;45605;-75
2023/03/05 01:20:45;;;;;;;;;18.33;15.33;;;;;7.66;63.39;101872.66;5041364;28;45626;-74
2023/03/05 01:23:11;;;;;;;;;21.00;19.33;;;;;7.69;63.21;101865.34;5045772;28;45786;-74
2023/03/05 01:25:36;;;;;;;;;23.67;20.00;;;;;7.69;62.96;101867.16;5044849;28;45490;-74
2023/03/05 01:28:02;;;;;;;;;20.67;18.67;;;;;7.77;63.43;101872.81;5055489;28;45383;-73
2023/03/05 01:30:27;;;;;;;;;20.67;18.00;;;;;7.85;63.28;101862.59;5044501;28;45538;-74
2023/03/05 01:32:54;;;;;;;;;15.67;14.33;;;;;7.69;63.40;101835.41;5053705;28;45477;-76
2023/03/05 01:35:22;;;;;;;;;18.67;18.33;;;;;7.88;63.12;101857.09;5063937;28;46099;-73
2023/03/05 01:37:47;;;;;;;;;23.00;23.00;;;;;7.36;63.46;101767.81;5041581;28;45717;-74
2023/03/05 01:40:16;;;;;;;;;17.33;16.00;;;;;7.73;63.79;101836.88;5053663;28;45522;-74
2023/03/05 01:42:59;;;;;;;;;17.33;17.33;;;;;7.80;64.37;101848.78;5051802;28;45551;-73
2023/03/05 01:45:24;;;;;;;;;19.00;18.33;;;;;7.76;64.50;101841.97;5047711;28;47005;-74
2023/03/05 01:47:49;;;;;;;;;21.67;19.33;;;;;7.68;63.91;101812.53;5055987;28;45548;-73
2023/03/05 01:50:18;;;;;;;;;24.33;23.33;;;;;7.68;63.81;101801.94;5054481;28;45477;-74
2023/03/05 01:52:52;;;;;;;;;23.33;20.33;;;;;7.68;64.27;101794.84;5043944;28;45670;-74
2023/03/05 01:55:22;;;;;;;;;23.33;20.33;;;;;7.80;64.70;101823.16;5045328;28;45321;-72
2023/03/05 01:57:52;;;;;;;;;21.67;19.33;;;;;7.47;64.83;101775.06;5063327;28;45454;-75
2023/03/05 02:00:25;;;;;;;;;22.33;19.67;;;;;7.69;64.69;101812.41;5046250;28;45310;-74
2023/03/05 02:02:51;;;;;;;;;25.00;22.33;;;;;7.80;64.83;101822.28;5044550;28;45674;-75
2023/03/05 02:05:25;;;;;;;;;25.00;21.67;;;;;7.81;65.31;101831.97;5045909;28;45369;-73
2023/03/05 02:07:55;;;;;;;;;32.00;26.00;;;;;7.68;64.99;101797.50;5055047;28;45423;-73
2023/03/05 02:10:31;;;;;;;;;34.67;31.00;;;;;7.59;64.95;101771.59;5046865;28;45232;-74
2023/03/05 02:13:01;;;;;;;;;26.00;24.00;;;;;7.88;64.98;101806.78;5041207;28;45750;-74
2023/03/05 02:15:28;;;;;;;;;24.33;22.33;;;;;7.79;65.27;101796.78;5036602;28;45265;-74
2023/03/05 02:17:53;;;;;;;;;26.33;24.33;;;;;7.81;65.62;101808.13;5050859;28;45177;-71
2023/03/05 02:20:22;;;;;;;;;27.00;22.67;;;;;7.82;65.24;101809.84;5058945;28;45629;-73
2023/03/05 02:22:47;;;;;;;;;28.67;23.00;;;;;7.16;65.25;101683.59;5055296;28;47427;-75
2023/03/05 02:25:19;;;;;;;;;23.00;21.00;;;;;7.47;65.51;101746.81;5047539;28;45444;-74
2023/03/05 02:28:10;;;;;;;;;23.67;22.67;;;;;7.45;66.25;101754.00;5050274;28;45633;-73
2023/03/05 02:30:37;;;;;;;;;24.33;23.67;;;;;7.55;66.55;101755.09;5045310;28;45516;-73
2023/03/05 02:33:03;;;;;;;;;33.00;25.67;;;;;7.65;66.77;101784.47;5056016;28;46301;-74
2023/03/05 02:35:29;;;;;;;;;26.33;24.00;;;;;7.47;67.21;101767.97;5055814;28;45411;-74
2023/03/05 02:37:54;;;;;;;;;23.00;22.33;;;;;6.71;66.92;101654.72;5056023;28;45270;-75
2023/03/05 02:40:20;;;;;;;;;28.33;24.67;;;;;7.66;66.57;101777.38;5039013;28;45385;-73
2023/03/05 02:42:45;;;;;;;;;27.00;27.00;;;;;7.35;66.51;101721.13;5046938;28;47658;-73
2023/03/05 02:45:12;;;;;;;;;36.00;29.67;;;;;7.66;66.79;101762.34;5054387;28;45511;-74
2023/03/05 02:47:37;;;;;;;;;24.67;20.67;;;;;7.70;66.65;101766.47;5047915;28;46258;-72
2023/03/05 02:50:05;;;;;;;;;28.33;23.33;;;;;7.67;66.71;101757.91;5054938;28;45823;-75
2023/03/05 02:52:30;;;;;;;;;26.33;25.33;;;;;7.19;66.09;101671.00;5037509;28;45651;-74
2023/03/05 02:54:55;;;;;;;;;27.00;23.33;;;;;7.63;67.06;101757.25;5036130;28;45358;-75
2023/03/05 02:57:21;;;;;;;;;39.00;32.67;;;;;7.56;66.95;101745.34;5044970;28;45220;-73
2023/03/05 02:59:47;;;;;;;;;26.33;22.00;;;;;7.37;67.11;101713.09;5052793;28;45488;-73
2023/03/05 03:02:12;;;;;;;;;29.33;25.67;;;;;7.63;67.22;101752.81;5051141;28;45601;-74
2023/03/05 03:04:38;;;;;;;;;32.00;21.00;;;;;7.36;66.94;101701.66;5054559;28;45963;-71
2023/03/05 03:07:03;;;;;;;;;30.33;28.00;;;;;7.35;66.81;101693.84;5050188;28;45294;-73
2023/03/05 03:09:29;;;;;;;;;23.00;22.00;;;;;7.73;66.50;101744.25;5036401;28;45209;-73
2023/03/05 03:11:54;;;;;;;;;23.67;23.00;;;;;7.51;66.59;101711.25;5048755;28;45538;-73
2023/03/05 03:14:20;;;;;;;;;30.33;26.33;;;;;7.56;66.58;101725.03;5047173;28;52339;-72
2023/03/05 03:16:45;;;;;;;;;25.67;25.00;;;;;6.84;66.24;101582.59;5053660;28;45435;-73
2023/03/05 03:19:11;;;;;;;;;35.33;29.33;;;;;7.79;66.13;101741.19;5047667;28;45368;-72
2023/03/05 03:21:36;;;;;;;;;33.00;28.67;;;;;6.88;66.45;101579.63;5053815;28;46601;-74
2023/03/05 03:24:02;;;;;;;;;35.67;31.00;;;;;7.78;66.61;101744.78;5055664;28;45570;-74
2023/03/05 03:26:27;;;;;;;;;33.67;30.00;;;;;7.59;66.84;101713.38;5055278;28;45870;-74
2023/03/05 03:28:52;;;;;;;;;34.67;28.00;;;;;7.63;66.81;101709.63;5045695;28;45501;-73
2023/03/05 03:31:18;;;;;;;;;32.67;25.00;;;;;7.73;66.78;101725.72;5047390;28;46618;-73
2023/03/05 03:33:44;;;;;;;;;24.67;22.67;;;;;7.67;66.88;101726.13;5056912;28;45518;-73
2023/03/05 03:36:10;;;;;;;;;28.33;22.00;;;;;7.65;66.92;101718.28;5044541;28;45293;-74
2023/03/05 03:38:35;;;;;;;;;32.00;29.67;;;;;7.53;67.01;101682.03;5053979;28;45299;-73
2023/03/05 03:41:01;;;;;;;;;27.67;22.00;;;;;7.54;67.27;101703.09;5057139;28;48364;-74
2023/03/05 03:43:26;;;;;;;;;26.00;23.33;;;;;7.60;67.16;101713.28;5050201;28;45463;-73
2023/03/05 03:45:52;;;;;;;;;26.33;23.67;;;;;7.52;67.03;101707.66;5057402;28;45368;-73
2023/03/05 03:48:17;;;;;;;;;22.33;22.33;;;;;7.40;67.69;101687.28;5057744;28;45459;-74
2023/03/05 03:50:43;;;;;;;;;28.67;22.33;;;;;7.61;66.80;101707.06;5040820;28;46401;-74
2023/03/05 03:53:13;;;;;;;;;26.33;21.00;;;;;7.48;67.01;101689.44;5049148;28;45534;-73
2023/03/05 03:55:38;;;;;;;;;27.67;24.67;;;;;7.44;66.99;101677.38;5053735;28;45415;-76
2023/03/05 03:58:04;;;;;;;;;21.00;18.67;;;;;7.50;67.73;101701.63;5057537;28;45535;-73
2023/03/05 04:00:29;;;;;;;;;25.33;21.00;;;;;7.55;67.21;101702.16;5059344;28;47314;-72
2023/03/05 04:02:54;;;;;;;;;15.67;14.33;;;;;7.46;67.10;101686.06;5042112;28;45325;-74
2023/03/05 04:05:20;;;;;;;;;15.67;14.33;;;;;7.12;67.75;101632.72;5052935;28;45224;-72
2023/03/05 04:07:45;;;;;;;;;21.00;21.00;;;;;7.08;67.55;101633.00;5051829;28;45306;-73
2023/03/05 04:10:11;;;;;;;;;18.33;18.33;;;;;7.43;67.44;101680.97;5044582;28;47649;-74
2023/03/05 04:12:36;;;;;;;;;26.00;22.33;;;;;7.01;67.16;101596.41;5039344;28;45297;-73
2023/03/05 04:15:02;;;;;;;;;24.00;22.00;;;;;6.08;67.21;101429.88;5056673;28;45356;-73
2023/03/05 04:17:28;;;;;;;;;23.33;22.33;;;;;7.47;67.11;101656.84;5052000;28;45439;-74
2023/03/05 04:19:53;;;;;;;;;25.67;24.67;;;;;7.46;67.38;101668.38;5047985;28;45521;-74
2023/03/05 04:22:19;;;;;;;;;22.33;20.67;;;;;7.29;66.83;101636.91;5050401;28;45434;-71
2023/03/05 04:24:44;;;;;;;;;17.33;16.00;;;;;6.82;67.25;101564.19;5041405;28;45711;-73
2023/03/05 04:27:10;;;;;;;;;21.00;20.00;;;;;7.50;67.26;101688.38;5058466;28;45529;-75
2023/03/05 04:29:35;;;;;;;;;22.00;17.33;;;;;7.25;67.78;101656.56;5056681;28;47684;-72
2023/03/05 04:32:01;;;;;;;;;15.67;15.67;;;;;7.41;67.59;101693.41;5039548;28;46076;-74
2023/03/05 04:34:27;;;;;;;;;18.67;17.67;;;;;7.20;67.54;101642.78;5052779;28;45318;-74
2023/03/05 04:36:52;;;;;;;;;24.67;23.33;;;;;7.48;67.89;101678.88;5055772;28;45380;-74
2023/03/05 04:39:19;;;;;;;;;25.67;23.67;;;;;7.33;67.39;101641.88;5050812;28;46557;-76
2023/03/05 04:41:48;;;;;;;;;24.00;21.00;;;;;7.31;67.43;101645.56;5047984;28;45467;-74
2023/03/05 04:44:14;;;;;;;;;21.33;20.33;;;;;7.44;67.71;101675.56;5047434;28;45421;-74
2023/03/05 04:46:40;;;;;;;;;28.67;23.00;;;;;7.29;67.53;101650.13;5050333;28;45226;-75
2023/03/05 04:49:05;;;;;;;;;24.00;20.50;;;;;7.49;67.44;101672.63;5049820;28;46436;-73
2023/03/05 04:51:30;;;;;;;;;23.00;21.00;;;;;7.50;67.76;101672.50;5056031;28;45852;-74
2023/03/05 04:53:56;;;;;;;;;22.67;21.00;;;;;7.50;67.50;101677.81;5049689;28;45266;-73
2023/03/05 04:56:22;;;;;;;;;22.67;20.67;;;;;7.48;67.76;101657.69;5058081;28;45460;-73
2023/03/05 04:58:47;;;;;;;;;19.00;16.33;;;;;7.45;67.35;101669.34;5051947;28;47825;-71
2023/03/05 05:01:12;;;;;;;;;24.00;21.67;;;;;7.17;67.80;101611.25;5047614;28;46215;-74
2023/03/05 05:03:37;;;;;;;;;25.67;22.33;;;;;6.08;67.07;101411.41;5057366;28;50460;-74
2023/03/05 05:06:03;;;;;;;;;21.33;18.00;;;;;7.51;67.13;101641.63;5057178;28;45453;-74
2023/03/05 05:08:29;;;;;;;;;20.67;17.33;;;;;7.60;67.00;101633.88;5056186;28;47791;-75
2023/03/05 05:10:59;;;;;;;;;22.67;21.33;;;;;7.60;66.89;101649.78;5069558;28;45869;-78
2023/03/05 05:13:24;;;;;;;;;22.00;18.67;;;;;7.38;67.07;101630.97;5054671;28;45555;-75
2023/03/05 05:15:49;;;;;;;;;21.33;17.00;;;;;6.55;67.75;101497.25;5057414;28;45274;-75
2023/03/05 05:18:15;;;;;;;;;20.67;18.00;;;;;7.34;68.24;101640.06;5045524;28;45529;-72
2023/03/05 05:20:40;;;;;;;;;20.33;16.00;;;;;7.15;68.33;101613.16;5052307;28;45201;-74
2023/03/05 05:23:05;;;;;;;;;22.00;18.33;;;;;7.26;68.16;101618.59;5057653;28;46012;-75
2023/03/05 05:25:31;;;;;;;;;21.67;21.00;;;;;6.99;68.21;101600.06;5049165;28;45410;-73
2023/03/05 05:27:56;;;;;;;;;21.00;21.00;;;;;7.17;68.15;101612.09;5048748;28;45812;-73
2023/03/05 05:30:21;;;;;;;;;27.00;22.00;;;;;7.17;67.75;101576.88;5039865;28;57085;-75
2023/03/05 05:32:47;;;;;;;;;31.00;23.00;;;;;7.27;68.06;101592.03;5051452;28;45530;-74
2023/03/05 05:35:12;;;;;;;;;17.33;16.00;;;;;6.77;67.57;101512.56;5051647;28;45634;-73
2023/03/05 05:37:38;;;;;;;;;23.00;20.67;;;;;6.54;67.92;101479.72;5050599;28;46306;-72
2023/03/05 05:40:04;;;;;;;;;25.00;20.67;;;;;6.77;68.49;101534.53;5048586;28;45649;-75
2023/03/05 05:42:29;;;;;;;;;23.33;19.33;;;;;6.82;68.28;101548.34;5045374;28;45453;-73
2023/03/05 05:44:55;;;;;;;;;20.00;16.67;;;;;7.15;67.98;101592.00;5050235;28;45591;-73
2023/03/05 05:47:20;;;;;;;;;20.00;20.00;;;;;7.39;67.86;101622.09;5044745;28;47599;-74
2023/03/05 05:49:46;;;;;;;;;19.33;16.00;;;;;7.45;67.71;101632.28;5044676;28;45424;-74
2023/03/05 05:52:12;;;;;;;;;21.00;18.67;;;;;7.43;67.56;101618.31;5046160;28;45312;-75
2023/03/05 05:54:37;;;;;;;;;23.33;22.00;;;;;7.38;67.25;101593.94;5050098;28;45479;-72
2023/03/05 05:57:02;;;;;;;;;18.33;15.00;;;;;7.29;67.76;101584.00;5047941;28;45413;-74
2023/03/05 05:59:28;;;;;;;;;24.33;19.67;;;;;7.40;67.80;101602.63;5044009;28;45260;-75
2023/03/05 06:01:53;;;;;;;;;18.00;15.33;;;;;7.27;67.33;101585.91;5050658;28;45453;-73
2023/03/05 06:04:19;;;;;;;;;20.33;19.33;;;;;7.44;67.93;101619.16;5056480;28;45162;-75
2023/03/05 06:06:44;;;;;;;;;16.00;14.33;;;;;7.51;67.51;101616.00;5055564;28;45725;-73
2023/03/05 06:09:10;;;;;;;;;20.33;16.00;;;;;4.65;67.46;101155.06;5055003;28;45521;-74
2023/03/05 06:11:36;;;;;;;;;20.33;16.67;;;;;7.16;67.48;101551.38;5035221;28;45368;-74
2023/03/05 06:14:02;;;;;;;;;19.00;17.33;;;;;7.49;67.79;101620.53;5047567;28;45352;-72
2023/03/05 06:16:28;;;;;;;;;25.00;20.33;;;;;7.19;68.03;101589.03;5054866;28;45445;-74
2023/03/05 06:18:54;;;;;;;;;22.33;19.33;;;;;6.77;67.94;101513.41;5050112;28;45353;-72
2023/03/05 06:21:21;;;;;;;;;18.67;14.33;;;;;7.50;67.46;101618.75;5037681;28;45245;-73
2023/03/05 06:23:48;;;;;;;;;11.33;10.00;;;;;7.58;67.42;101627.00;5054542;28;45487;-72
2023/03/05 06:26:16;;;;;;;;;20.33;15.33;;;;;7.51;67.47;101620.44;5053925;28;46707;-74
2023/03/05 06:28:42;;;;;;;;;20.67;18.00;;;;;6.58;67.36;101491.78;5052371;28;45239;-73
2023/03/05 06:31:16;;;;;;;;;15.33;14.00;;;;;7.42;67.91;101621.91;5055598;28;45341;-71
2023/03/05 06:33:42;;;;;;;;;17.67;15.00;;;;;7.42;67.57;101611.34;5052973;28;45515;-74
2023/03/05 06:36:10;;;;;;;;;15.00;15.00;;;;;7.37;67.41;101610.78;5050062;28;48112;-73
2023/03/05 06:38:38;;;;;;;;;17.00;14.67;;;;;7.37;67.04;101602.84;5046517;28;45560;-74
2023/03/05 06:41:08;;;;;;;;;19.67;15.67;;;;;6.36;67.38;101435.06;5045997;28;45359;-74
2023/03/05 06:43:36;;;;;;;;;17.33;15.67;;;;;7.42;67.18;101611.34;5054023;28;45209;-73
2023/03/05 06:46:07;;;;;;;;;15.67;14.67;;;;;7.32;66.84;101589.06;5049840;28;45833;-73
2023/03/05 06:48:33;;;;;;;;;18.00;14.33;;;;;7.53;66.88;101618.53;5044569;28;45797;-73
2023/03/05 06:50:58;;;;;;;;;14.67;13.00;;;;;7.60;67.08;101633.88;5046102;28;45467;-74
2023/03/05 06:53:24;;;;;;;;;20.50;19.00;;;;;7.67;66.74;101609.69;5051584;28;45516;-74
2023/03/05 06:55:51;;;;;;;;;22.67;21.67;;;;;7.22;66.52;101553.63;5043073;28;48808;-74
2023/03/05 06:58:16;;;;;;;;;21.33;17.67;;;;;7.44;67.11;101606.78;5045547;28;45391;-73
2023/03/05 07:00:43;;;;;;;;;20.00;16.00;;;;;7.46;67.30;101612.81;5055315;28;45944;-76
2023/03/05 07:03:08;;;;;;;;;23.00;16.67;;;;;7.27;67.67;101589.41;5042392;28;45449;-73
2023/03/05 07:05:38;;;;;;;;;19.67;15.67;;;;;6.50;66.83;101441.25;5039448;28;46649;-74
2023/03/05 07:08:06;;;;;;;;;23.67;18.67;;;;;7.30;67.28;101575.09;5051909;28;45492;-73
2023/03/05 07:10:31;;;;;;;;;22.67;20.00;;;;;7.26;67.08;101582.41;5051062;28;45367;-74
2023/03/05 07:12:57;;;;;;;;;16.00;14.67;;;;;7.48;66.89;101616.22;5059257;28;45494;-75
2023/03/05 07:15:23;;;;;;;;;20.00;18.33;;;;;6.74;67.21;101487.19;5043143;28;48047;-72
2023/03/05 07:17:48;;;;;;;;;22.33;20.33;;;;;7.07;66.81;101538.78;5057551;28;45232;-73
2023/03/05 07:20:14;;;;;;;;;19.00;18.33;;;;;7.48;66.94;101595.03;5065831;28;45436;-73
2023/03/05 07:22:39;;;;;;;;;26.33;19.67;;;;;7.58;66.84;101605.84;5052384;28;45225;-73
2023/03/05 07:25:06;;;;;;;;;24.00;20.33;;;;;7.53;66.64;101611.44;5058319;28;47756;-73
2023/03/05 07:27:36;;;;;;;;;21.67;21.00;;;;;7.43;66.78;101602.44;5057466;28;45511;-74
2023/03/05 07:30:02;;;;;;;;;23.33;18.33;;;;;7.48;66.56;101610.06;5039512;28;45365;-75
2023/03/05 07:32:28;;;;;;;;;24.67;20.33;;;;;7.28;66.34;101571.72;5046849;28;45630;-75
2023/03/05 07:34:53;;;;;;;;;21.67;18.67;;;;;7.45;66.87;101605.84;5055430;28;46149;-75
2023/03/05 07:37:18;;;;;;;;;20.33;19.67;;;;;7.24;65.77;101549.09;5039505;28;45476;-74
2023/03/05 07:39:44;;;;;;;;;21.00;19.67;;;;;7.24;65.94;101551.72;5057216;28;45449;-74
2023/03/05 07:42:09;;;;;;;;;22.33;21.33;;;;;7.11;66.19;101532.31;5042145;28;45324;-74
2023/03/05 07:44:35;;;;;;;;;24.00;24.00;;;;;7.53;65.73;101608.81;5047656;28;46120;-73
2023/03/05 07:47:00;;;;;;;;;22.33;19.33;;;;;7.07;65.89;101541.41;5055674;28;45301;-75
2023/03/05 07:49:25;;;;;;;;;26.00;23.67;;;;;7.54;66.03;101594.63;5051233;28;45581;-75
2023/03/05 07:51:51;;;;;;;;;26.00;23.33;;;;;7.56;65.63;101597.16;5046921;28;45273;-73
2023/03/05 07:54:16;;;;;;;;;28.00;26.00;;;;;6.79;65.93;101463.94;5058191;28;45363;-74
2023/03/05 07:56:41;;;;;;;;;25.00;21.00;;;;;7.82;65.24;101608.66;5041321;28;45422;-76
2023/03/05 07:59:11;;;;;;;;;27.33;24.67;;;;;7.49;64.82;101535.88;5048212;28;45451;-75
2023/03/05 08:01:36;;;;;;;;;27.00;26.67;;;;;7.83;65.39;101610.34;5055068;28;45454;-76
2023/03/05 08:04:04;;;;;;;;;31.33;24.00;;;;;7.12;65.43;101499.66;5048198;28;46917;-73
2023/03/05 08:06:30;;;;;;;;;27.67;25.00;;;;;7.77;65.29;101606.28;5045746;28;45205;-74
2023/03/05 08:08:56;;;;;;;;;32.67;27.33;;;;;7.63;65.61;101582.56;5055568;28;45371;-73
2023/03/05 08:11:22;;;;;;;;;33.33;29.00;;;;;7.87;65.41;101617.09;5043771;28;45256;-74
2023/03/05 08:13:47;;;;;;;;;32.33;27.67;;;;;7.50;65.35;101553.44;5061498;28;46314;-75
2023/03/05 08:16:15;;;;;;;;;25.67;21.00;;;;;7.76;66.20;101604.59;5056172;28;45373;-74
2023/03/05 08:18:40;;;;;;;;;34.00;26.67;;;;;6.73;65.75;101422.06;5063629;28;45660;-73
2023/03/05 08:21:06;;;;;;;;;29.33;27.00;;;;;7.75;65.34;101576.44;5044049;28;45769;-74
2023/03/05 08:23:33;;;;;;;;;29.67;24.33;;;;;7.56;64.91;101531.00;5063302;27;45997;-73
2023/03/05 08:25:58;;;;;;;;;32.33;27.33;;;;;7.90;64.36;101548.91;5054218;28;45461;-71
2023/03/05 08:28:24;;;;;;;;;27.00;23.67;;;;;8.04;64.39;101571.78;5057581;28;45668;-72
2023/03/05 08:30:49;;;;;;;;;35.00;29.33;;;;;7.74;64.17;101490.03;5062915;27;45518;-71
2023/03/05 08:33:18;;;;;;;;;29.33;28.00;;;;;8.07;63.83;101537.13;5046724;27;46427;-72
2023/03/05 08:35:44;;;;;;;;;32.67;25.33;;;;;8.01;64.03;101553.47;5044485;28;45499;-73
2023/03/05 08:38:09;;;;;;;;;27.00;24.00;;;;;8.23;63.88;101582.78;5055832;28;45598;-70
2023/03/05 08:40:34;;;;;;;;;28.67;25.33;;;;;8.32;63.16;101597.16;5051143;28;45494;-73
2023/03/05 08:43:00;;;;;;;;;31.00;28.67;;;;;8.26;62.87;101586.16;5041941;28;45370;-74
2023/03/05 08:45:27;;;;;;;;;25.67;21.00;;;;;8.35;62.96;101604.06;5056907;28;45550;-72
2023/03/05 08:47:53;;;;;;;;;29.00;24.00;;;;;8.22;63.19;101559.88;5055995;28;45413;-71
2023/03/05 08:50:21;;;;;;;;;26.33;25.00;;;;;8.45;63.10;101594.53;5057903;28;45509;-73
2023/03/05 08:52:46;;;;;;;;;32.00;26.00;;;;;8.36;62.88;101571.31;5054058;28;46688;-73
2023/03/05 08:55:11;;;;;;;;;26.67;24.33;;;;;8.05;62.60;101509.91;5048141;28;45362;-73
2023/03/05 08:57:37;;;;;;;;;30.00;27.33;;;;;7.69;62.14;101443.69;5054509;28;45617;-73
2023/03/05 09:00:02;;;;;;;;;23.67;21.67;;;;;8.62;62.19;101588.03;5048536;28;45503;-70
2023/03/05 09:02:28;;;;;;;;;32.67;26.33;;;;;8.36;61.60;101560.72;5055346;28;46407;-73
2023/03/05 09:04:54;;;;;;;;;29.00;25.00;;;;;8.56;62.24;101583.13;5057564;28;45358;-74
2023/03/05 09:07:19;;;;;;;;;33.33;27.00;;;;;8.02;61.93;101496.91;5052314;28;45355;-72
2023/03/05 09:09:45;;;;;;;;;29.00;28.67;;;;;8.61;61.85;101581.00;5037368;28;45395;-73
2023/03/05 09:12:12;;;;;;;;;25.33;24.33;;;;;8.70;61.92;101589.16;5043795;28;45541;-72
2023/03/05 09:14:38;;;;;;;;;28.67;25.33;;;;;8.27;61.35;101493.31;5041193;28;45419;-72
2023/03/05 09:17:03;;;;;;;;;32.00;27.33;;;;;8.26;61.08;101501.38;5054825;28;45517;-73
2023/03/05 09:19:28;;;;;;;;;27.67;26.33;;;;;8.40;61.17;101520.63;5056275;28;45450;-75
2023/03/05 09:21:54;;;;;;;;;22.67;17.67;;;;;8.50;61.35;101536.72;5046488;28;48461;-72
2023/03/05 09:24:19;;;;;;;;;20.33;18.33;;;;;8.35;61.86;101537.84;5060249;28;46199;-73
2023/03/05 09:26:45;;;;;;;;;30.00;23.33;;;;;8.72;61.80;101573.97;5054528;28;45593;-72
2023/03/05 09:29:11;;;;;;;;;26.00;26.00;;;;;8.45;61.92;101554.78;5055902;28;45469;-75
2023/03/05 09:31:36;;;;;;;;;26.67;23.67;;;;;8.32;62.22;101544.16;5053421;28;45560;-73
2023/03/05 09:34:03;;;;;;;;;30.00;28.67;;;;;7.70;61.93;101461.25;5075010;27;45571;-74
2023/03/05 09:36:30;;;;;;;;;34.00;28.33;;;;;8.37;61.99;101568.56;5057903;28;45610;-74
2023/03/05 09:38:56;;;;;;;;;28.33;25.67;;;;;8.27;61.84;101566.66;5057545;28;45701;-74
2023/03/05 09:41:33;;;;;;;;;27.33;25.33;;;;;8.45;61.64;101534.44;5058978;28;46325;-73
2023/03/05 09:44:17;;;;;;;;;24.33;19.67;;;;;7.66;60.79;101417.44;5058162;28;45557;-73
2023/03/05 09:46:52;;;;;;;;;26.33;26.00;;;;;8.57;60.43;101559.16;5057464;28;45773;-72
2023/03/05 09:49:42;;;;;;;;;24.33;23.00;;;;;8.68;60.51;101561.06;5059098;27;45676;-75
2023/03/05 09:52:18;;;;;;;;;19.00;16.67;;;;;8.19;60.39;101466.53;5058011;28;46978;-72
2023/03/05 09:54:52;;;;;;;;;21.00;19.33;;;;;8.67;60.02;101541.66;5062367;28;45546;-76
2023/03/05 09:57:23;;;;;;;;;22.67;19.67;;;;;8.71;59.59;101540.47;5060960;28;45535;-74
2023/03/05 10:00:16;;;;;;;;;17.67;15.00;;;;;8.62;58.77;101522.59;5061648;28;45544;-73
2023/03/05 10:02:54;;;;;;;;;20.33;17.33;;;;;8.70;59.33;101496.38;5061394;28;46663;-76
2023/03/05 10:05:29;;;;;;;;;20.67;18.33;;;;;9.07;59.26;101525.44;5061143;28;45461;-75
2023/03/05 10:08:02;;;;;;;;;19.00;16.67;;;;;9.26;58.72;101499.22;5048282;28;45445;-72
2023/03/05 10:10:40;;;;;;;;;19.00;19.00;;;;;8.43;57.31;101365.91;5049539;28;45529;-75
2023/03/05 10:13:31;;;;;;;;;20.00;16.00;;;;;9.46;57.13;101508.31;5054090;28;46564;-73
2023/03/05 10:16:05;;;;;;;;;27.67;23.67;;;;;9.26;56.66;101466.53;5051503;28;45513;-74
2023/03/05 10:18:42;;;;;;;;;13.33;8.67;;;;;9.49;56.36;101504.56;5047919;28;45484;-73
2023/03/05 10:21:31;;;;;;;;;18.00;17.00;;;;;8.86;56.66;101373.25;5050328;28;45498;-72
2023/03/05 10:24:10;;;;;;;;;23.00;20.33;;;;;9.54;55.95;101481.16;5036288;28;46591;-73
2023/03/05 10:26:44;;;;;;;;;19.33;17.67;;;;;9.67;55.96;101500.47;5043523;28;45277;-73
2023/03/05 10:29:33;;;;;;;;;17.33;14.33;;;;;9.67;55.56;101497.84;5057094;28;45763;-74
2023/03/05 10:32:14;;;;;;;;;17.67;16.67;;;;;9.65;56.00;101502.41;5053068;28;45460;-73
2023/03/05 10:34:54;;;;;;;;;19.67;19.00;;;;;9.55;56.60;101498.78;5054449;28;46718;-72
2023/03/05 10:37:36;;;;;;;;;21.00;20.33;;;;;9.37;56.05;101485.97;5052965;28;45558;-73
2023/03/05 10:40:29;;;;;;;;;16.67;16.67;;;;;9.34;56.78;101482.69;5054610;28;45526;-76
2023/03/05 10:43:13;;;;;;;;;20.67;19.00;;;;;9.02;56.72;101448.03;5067321;27;45302;-73
2023/03/05 10:45:46;;;;;;;;;18.00;15.67;;;;;9.12;56.38;101486.16;5056820;28;45967;-74
2023/03/05 10:48:26;;;;;;;;;19.33;18.00;;;;;9.01;56.60;101488.75;5059584;28;45512;-74
2023/03/05 10:51:11;;;;;;;;;17.67;16.33;;;;;8.93;56.89;101477.88;5059581;28;45319;-72
2023/03/05 10:53:57;;;;;;;;;16.00;15.00;;;;;7.36;57.14;101206.16;5051570;28;45465;-73
2023/03/05 10:56:26;;;;;;;;;21.33;21.33;;;;;9.12;56.91;101486.16;5051152;28;46496;-72
2023/03/05 10:58:52;;;;;;;;;24.00;17.67;;;;;9.14;55.89;101479.75;5046120;28;45548;-71
2023/03/05 11:01:26;;;;;;;;;19.67;14.00;;;;;9.03;55.82;101461.19;5042491;28;45404;-71
2023/03/05 11:03:57;;;;;;;;;17.33;17.00;;;;;9.09;55.33;101475.78;5061769;28;45658;-70
2023/03/05 11:06:28;;;;;;;;;16.67;16.00;;;;;8.29;54.76;101379.31;5042752;28;46379;-74
2023/03/05 11:08:53;;;;;;;;;18.33;13.00;;;;;8.66;55.19;101441.88;5055868;28;45510;-74
2023/03/05 11:11:21;;;;;;;;;15.33;15.00;;;;;8.97;54.97;101471.38;5048964;28;45578;-72
2023/03/05 11:14:02;;;;;;;;;15.00;14.33;;;;;8.90;55.09;101435.69;5045509;28;45798;-77
2023/03/05 11:16:30;;;;;;;;;15.00;13.67;;;;;9.20;54.53;101472.28;5053479;28;46503;-72
2023/03/05 11:19:20;;;;;;;;;12.00;12.00;;;;;9.28;54.59;101457.50;5054497;28;45422;-73